Terminal Aerodrome Forecast
Issued by NWS Brownsville, TX

Home | Current Version | Previous Version | Text Only | Print | Product List | Glossary On
Versions: 1 2 3 4 5 6 7 8 9 10 11 12 13 14 15 16 17 18 19 20 21 22 23
621
FTUS44 KBRO 060529
TAFBRO
TAF
KBRO 060529Z 0606/0706 09003KT P6SM OVC070
     FM060800 VRB02KT P6SM SCT060
      TEMPO 0611/0613 5SM BR
     FM061500 32015G21KT P6SM SKC
     FM070000 36007KT P6SM SKC=

USA.gov is the U.S. government's official web portal to all federal, state and local government web resources and services.